sensor_id;sensor_type;location;lat;lon;timestamp;temperature;humidity
25949;DHT22;13961;51.178;4.448;2023-08-20T00:01:32;20.40;99.90
25949;DHT22;13961;51.178;4.448;2023-08-20T00:03:58;20.50;99.90
25949;DHT22;13961;51.178;4.448;2023-08-20T00:06:24;20.70;99.90
25949;DHT22;13961;51.178;4.448;2023-08-20T00:08:51;20.90;99.90
25949;DHT22;13961;51.178;4.448;2023-08-20T00:11:17;21.00;99.90
25949;DHT22;13961;51.178;4.448;2023-08-20T00:13:45;21.10;99.90
25949;DHT22;13961;51.178;4.448;2023-08-20T00:16:11;21.30;99.90
25949;DHT22;13961;51.178;4.448;2023-08-20T00:18:37;21.40;99.90
25949;DHT22;13961;51.178;4.448;2023-08-20T00:21:04;21.50;99.90
25949;DHT22;13961;51.178;4.448;2023-08-20T00:23:30;21.40;99.90
25949;DHT22;13961;51.178;4.448;2023-08-20T00:25:56;21.40;99.90
25949;DHT22;13961;51.178;4.448;2023-08-20T00:28:22;21.50;99.90
25949;DHT22;13961;51.178;4.448;2023-08-20T00:30:47;21.60;99.90
25949;DHT22;13961;51.178;4.448;2023-08-20T00:33:15;21.70;99.90
25949;DHT22;13961;51.178;4.448;2023-08-20T00:35:40;21.70;99.90
25949;DHT22;13961;51.178;4.448;2023-08-20T00:38:07;21.60;99.90
25949;DHT22;13961;51.178;4.448;2023-08-20T00:40:33;21.30;99.90
25949;DHT22;13961;51.178;4.448;2023-08-20T00:43:01;21.40;99.90
25949;DHT22;13961;51.178;4.448;2023-08-20T00:45:27;21.50;99.90
25949;DHT22;13961;51.178;4.448;2023-08-20T00:47:54;21.70;99.90
25949;DHT22;13961;51.178;4.448;2023-08-20T00:50:20;21.70;99.90
25949;DHT22;13961;51.178;4.448;2023-08-20T00:52:47;21.60;99.90
25949;DHT22;13961;51.178;4.448;2023-08-20T00:55:14;21.60;99.90
25949;DHT22;13961;51.178;4.448;2023-08-20T00:57:41;21.40;99.90
25949;DHT22;13961;51.178;4.448;2023-08-20T01:00:08;21.40;99.90
25949;DHT22;13961;51.178;4.448;2023-08-20T01:02:37;21.60;99.90
25949;DHT22;13961;51.178;4.448;2023-08-20T01:05:04;21.70;99.90
25949;DHT22;13961;51.178;4.448;2023-08-20T01:08:17;21.80;99.90
25949;DHT22;13961;51.178;4.448;2023-08-20T01:13:18;21.70;99.90
25949;DHT22;13961;51.178;4.448;2023-08-20T01:15:44;21.60;99.90
25949;DHT22;13961;51.178;4.448;2023-08-20T01:18:10;21.60;99.90
25949;DHT22;13961;51.178;4.448;2023-08-20T01:21:02;21.50;99.90
25949;DHT22;13961;51.178;4.448;2023-08-20T01:28:58;21.60;99.90
25949;DHT22;13961;51.178;4.448;2023-08-20T01:31:25;21.60;99.90
25949;DHT22;13961;51.178;4.448;2023-08-20T01:33:52;21.60;99.90
25949;DHT22;13961;51.178;4.448;2023-08-20T01:36:18;21.70;99.90
25949;DHT22;13961;51.178;4.448;2023-08-20T01:38:43;21.70;99.90
25949;DHT22;13961;51.178;4.448;2023-08-20T01:41:09;21.70;99.90
25949;DHT22;13961;51.178;4.448;2023-08-20T01:43:36;21.70;99.90
25949;DHT22;13961;51.178;4.448;2023-08-20T01:46:01;21.60;99.90
25949;DHT22;13961;51.178;4.448;2023-08-20T01:48:27;21.70;99.90
25949;DHT22;13961;51.178;4.448;2023-08-20T01:50:53;21.70;99.90
25949;DHT22;13961;51.178;4.448;2023-08-20T01:53:19;21.60;99.90
25949;DHT22;13961;51.178;4.448;2023-08-20T01:55:45;21.50;99.90
25949;DHT22;13961;51.178;4.448;2023-08-20T01:58:11;21.40;99.90
25949;DHT22;13961;51.178;4.448;2023-08-20T02:00:37;21.30;99.90
25949;DHT22;13961;51.178;4.448;2023-08-20T02:03:03;21.30;99.90
25949;DHT22;13961;51.178;4.448;2023-08-20T02:05:29;21.30;99.90
25949;DHT22;13961;51.178;4.448;2023-08-20T02:07:56;21.20;99.90
25949;DHT22;13961;51.178;4.448;2023-08-20T02:10:22;21.00;99.90
25949;DHT22;13961;51.178;4.448;2023-08-20T02:12:48;21.00;99.90
25949;DHT22;13961;51.178;4.448;2023-08-20T02:15:15;20.90;99.90
25949;DHT22;13961;51.178;4.448;2023-08-20T02:17:42;20.80;99.90
25949;DHT22;13961;51.178;4.448;2023-08-20T02:20:07;20.60;99.90
25949;DHT22;13961;51.178;4.448;2023-08-20T02:22:36;20.40;99.90
25949;DHT22;13961;51.178;4.448;2023-08-20T02:25:02;20.30;99.90
25949;DHT22;13961;51.178;4.448;2023-08-20T02:27:28;20.50;99.90
25949;DHT22;13961;51.178;4.448;2023-08-20T02:29:55;20.50;99.90
25949;DHT22;13961;51.178;4.448;2023-08-20T02:32:24;20.40;99.90
25949;DHT22;13961;51.178;4.448;2023-08-20T02:34:54;20.40;99.90
25949;DHT22;13961;51.178;4.448;2023-08-20T02:37:20;20.40;99.90
25949;DHT22;13961;51.178;4.448;2023-08-20T02:39:45;20.40;99.90
25949;DHT22;13961;51.178;4.448;2023-08-20T02:42:14;20.40;99.90
25949;DHT22;13961;51.178;4.448;2023-08-20T02:44:41;20.30;99.90
25949;DHT22;13961;51.178;4.448;2023-08-20T02:47:07;20.10;99.90
25949;DHT22;13961;51.178;4.448;2023-08-20T02:49:34;20.10;99.90
25949;DHT22;13961;51.178;4.448;2023-08-20T02:52:01;19.90;99.90
25949;DHT22;13961;51.178;4.448;2023-08-20T02:54:30;20.10;99.90
25949;DHT22;13961;51.178;4.448;2023-08-20T02:56:58;20.20;99.90
25949;DHT22;13961;51.178;4.448;2023-08-20T02:59:25;20.30;99.90
25949;DHT22;13961;51.178;4.448;2023-08-20T03:01:51;20.40;99.90
25949;DHT22;13961;51.178;4.448;2023-08-20T03:04:16;20.30;99.90
25949;DHT22;13961;51.178;4.448;2023-08-20T03:06:42;20.20;99.90
25949;DHT22;13961;51.178;4.448;2023-08-20T03:09:10;20.00;99.90
25949;DHT22;13961;51.178;4.448;2023-08-20T03:11:36;20.00;99.90
25949;DHT22;13961;51.178;4.448;2023-08-20T03:14:02;20.00;99.90
25949;DHT22;13961;51.178;4.448;2023-08-20T03:16:27;19.90;99.90
25949;DHT22;13961;51.178;4.448;2023-08-20T03:18:53;19.90;99.90
25949;DHT22;13961;51.178;4.448;2023-08-20T03:21:19;19.80;99.90
25949;DHT22;13961;51.178;4.448;2023-08-20T03:23:45;19.90;99.90
25949;DHT22;13961;51.178;4.448;2023-08-20T03:26:10;19.90;99.90
25949;DHT22;13961;51.178;4.448;2023-08-20T03:28:37;19.90;99.90
25949;DHT22;13961;51.178;4.448;2023-08-20T03:31:03;19.80;99.90
25949;DHT22;13961;51.178;4.448;2023-08-20T03:33:28;19.80;99.90
25949;DHT22;13961;51.178;4.448;2023-08-20T03:35:54;19.80;99.90
25949;DHT22;13961;51.178;4.448;2023-08-20T03:38:20;19.80;99.90
25949;DHT22;13961;51.178;4.448;2023-08-20T03:40:47;19.70;99.90
25949;DHT22;13961;51.178;4.448;2023-08-20T03:43:13;19.80;99.90
25949;DHT22;13961;51.178;4.448;2023-08-20T03:45:39;19.90;99.90
25949;DHT22;13961;51.178;4.448;2023-08-20T03:48:05;19.90;99.90
25949;DHT22;13961;51.178;4.448;2023-08-20T03:50:30;20.10;99.90
25949;DHT22;13961;51.178;4.448;2023-08-20T03:52:58;20.10;99.90
25949;DHT22;13961;51.178;4.448;2023-08-20T03:55:24;20.10;99.90
25949;DHT22;13961;51.178;4.448;2023-08-20T03:57:49;20.20;99.90
25949;DHT22;13961;51.178;4.448;2023-08-20T04:00:16;20.30;99.90
25949;DHT22;13961;51.178;4.448;2023-08-20T04:02:45;20.20;99.90
25949;DHT22;13961;51.178;4.448;2023-08-20T04:05:11;20.10;99.90
25949;DHT22;13961;51.178;4.448;2023-08-20T04:07:39;20.00;99.90
25949;DHT22;13961;51.178;4.448;2023-08-20T04:10:08;19.90;99.90
25949;DHT22;13961;51.178;4.448;2023-08-20T04:12:34;19.80;99.90
25949;DHT22;13961;51.178;4.448;2023-08-20T04:14:59;19.70;99.90
25949;DHT22;13961;51.178;4.448;2023-08-20T04:17:26;19.90;99.90
25949;DHT22;13961;51.178;4.448;2023-08-20T04:19:53;19.80;99.90
25949;DHT22;13961;51.178;4.448;2023-08-20T04:22:18;19.80;99.90
25949;DHT22;13961;51.178;4.448;2023-08-20T04:24:45;19.80;99.90
25949;DHT22;13961;51.178;4.448;2023-08-20T04:27:13;19.80;99.90
25949;DHT22;13961;51.178;4.448;2023-08-20T04:29:39;19.80;99.90
25949;DHT22;13961;51.178;4.448;2023-08-20T04:32:05;19.90;99.90
25949;DHT22;13961;51.178;4.448;2023-08-20T04:34:32;19.90;99.90
25949;DHT22;13961;51.178;4.448;2023-08-20T04:37:04;19.80;99.90
25949;DHT22;13961;51.178;4.448;2023-08-20T04:39:30;19.90;99.90
25949;DHT22;13961;51.178;4.448;2023-08-20T04:41:55;19.90;99.90
25949;DHT22;13961;51.178;4.448;2023-08-20T04:44:23;19.90;99.90
25949;DHT22;13961;51.178;4.448;2023-08-20T04:46:49;19.90;99.90
25949;DHT22;13961;51.178;4.448;2023-08-20T04:49:15;19.80;99.90
25949;DHT22;13961;51.178;4.448;2023-08-20T04:51:41;19.90;99.90
25949;DHT22;13961;51.178;4.448;2023-08-20T04:54:06;20.00;99.90
25949;DHT22;13961;51.178;4.448;2023-08-20T04:56:32;20.00;99.90
25949;DHT22;13961;51.178;4.448;2023-08-20T04:58:58;20.10;99.90
25949;DHT22;13961;51.178;4.448;2023-08-20T05:01:23;20.00;99.90
25949;DHT22;13961;51.178;4.448;2023-08-20T05:03:49;20.00;99.90
25949;DHT22;13961;51.178;4.448;2023-08-20T05:06:16;20.00;99.90
25949;DHT22;13961;51.178;4.448;2023-08-20T05:08:42;19.90;99.90
25949;DHT22;13961;51.178;4.448;2023-08-20T05:11:08;20.00;99.90
25949;DHT22;13961;51.178;4.448;2023-08-20T05:13:33;19.90;99.90
25949;DHT22;13961;51.178;4.448;2023-08-20T05:15:59;20.00;99.90
25949;DHT22;13961;51.178;4.448;2023-08-20T05:18:25;19.70;99.90
25949;DHT22;13961;51.178;4.448;2023-08-20T05:20:53;19.60;99.90
25949;DHT22;13961;51.178;4.448;2023-08-20T05:23:20;19.80;99.90
25949;DHT22;13961;51.178;4.448;2023-08-20T05:25:45;19.80;99.90
25949;DHT22;13961;51.178;4.448;2023-08-20T05:28:11;19.90;99.90
25949;DHT22;13961;51.178;4.448;2023-08-20T05:30:39;19.80;99.90
25949;DHT22;13961;51.178;4.448;2023-08-20T05:33:05;19.70;99.90
25949;DHT22;13961;51.178;4.448;2023-08-20T05:35:32;19.70;99.90
25949;DHT22;13961;51.178;4.448;2023-08-20T05:37:58;19.60;99.90
25949;DHT22;13961;51.178;4.448;2023-08-20T05:40:24;19.60;99.90
25949;DHT22;13961;51.178;4.448;2023-08-20T05:42:51;19.50;99.90
25949;DHT22;13961;51.178;4.448;2023-08-20T05:45:17;19.50;99.90
25949;DHT22;13961;51.178;4.448;2023-08-20T05:47:42;19.50;99.90
25949;DHT22;13961;51.178;4.448;2023-08-20T05:50:08;19.60;99.90
25949;DHT22;13961;51.178;4.448;2023-08-20T05:52:34;19.70;99.90
25949;DHT22;13961;51.178;4.448;2023-08-20T05:55:00;19.70;99.90
25949;DHT22;13961;51.178;4.448;2023-08-20T05:57:27;19.90;99.90
25949;DHT22;13961;51.178;4.448;2023-08-20T05:59:55;20.00;99.90
25949;DHT22;13961;51.178;4.448;2023-08-20T06:02:22;20.10;99.90
25949;DHT22;13961;51.178;4.448;2023-08-20T06:04:47;20.00;99.90
25949;DHT22;13961;51.178;4.448;2023-08-20T06:07:16;20.10;99.90
25949;DHT22;13961;51.178;4.448;2023-08-20T06:09:42;20.10;99.90
25949;DHT22;13961;51.178;4.448;2023-08-20T06:12:09;20.20;99.90
25949;DHT22;13961;51.178;4.448;2023-08-20T06:14:35;20.30;99.90
25949;DHT22;13961;51.178;4.448;2023-08-20T06:17:03;20.50;99.90
25949;DHT22;13961;51.178;4.448;2023-08-20T06:19:29;20.40;99.90
25949;DHT22;13961;51.178;4.448;2023-08-20T06:21:58;20.40;99.90
25949;DHT22;13961;51.178;4.448;2023-08-20T06:24:26;20.50;99.90
25949;DHT22;13961;51.178;4.448;2023-08-20T06:26:52;20.40;99.90
25949;DHT22;13961;51.178;4.448;2023-08-20T06:29:18;20.40;99.90
25949;DHT22;13961;51.178;4.448;2023-08-20T06:31:45;20.50;99.90
25949;DHT22;13961;51.178;4.448;2023-08-20T06:34:12;20.60;99.90
25949;DHT22;13961;51.178;4.448;2023-08-20T06:36:38;21.70;99.90
25949;DHT22;13961;51.178;4.448;2023-08-20T06:39:04;23.80;99.90
25949;DHT22;13961;51.178;4.448;2023-08-20T06:41:30;25.30;99.90
25949;DHT22;13961;51.178;4.448;2023-08-20T06:43:59;26.50;99.90
25949;DHT22;13961;51.178;4.448;2023-08-20T06:46:25;27.60;99.90
25949;DHT22;13961;51.178;4.448;2023-08-20T06:48:53;27.90;99.90
25949;DHT22;13961;51.178;4.448;2023-08-20T06:51:22;29.30;99.90
25949;DHT22;13961;51.178;4.448;2023-08-20T06:53:49;30.80;99.90
25949;DHT22;13961;51.178;4.448;2023-08-20T06:56:17;31.90;99.90
25949;DHT22;13961;51.178;4.448;2023-08-20T06:58:46;32.70;99.90
25949;DHT22;13961;51.178;4.448;2023-08-20T07:01:12;33.40;98.40
25949;DHT22;13961;51.178;4.448;2023-08-20T07:03:40;33.60;97.40
25949;DHT22;13961;51.178;4.448;2023-08-20T07:06:08;33.50;96.20
25949;DHT22;13961;51.178;4.448;2023-08-20T07:08:38;33.60;95.80
25949;DHT22;13961;51.178;4.448;2023-08-20T07:11:08;33.90;95.10
25949;DHT22;13961;51.178;4.448;2023-08-20T07:13:34;33.50;93.50
25949;DHT22;13961;51.178;4.448;2023-08-20T07:16:00;32.50;94.30
25949;DHT22;13961;51.178;4.448;2023-08-20T07:18:29;32.30;95.80
25949;DHT22;13961;51.178;4.448;2023-08-20T07:20:56;32.70;95.70
25949;DHT22;13961;51.178;4.448;2023-08-20T07:23:22;33.70;94.30
25949;DHT22;13961;51.178;4.448;2023-08-20T07:25:47;33.80;93.90
25949;DHT22;13961;51.178;4.448;2023-08-20T07:28:16;32.80;94.80
25949;DHT22;13961;51.178;4.448;2023-08-20T07:30:47;33.70;93.00
25949;DHT22;13961;51.178;4.448;2023-08-20T07:33:12;34.20;92.50
25949;DHT22;13961;51.178;4.448;2023-08-20T07:35:39;33.70;91.90
25949;DHT22;13961;51.178;4.448;2023-08-20T07:38:06;33.50;91.90
25949;DHT22;13961;51.178;4.448;2023-08-20T07:40:31;33.30;92.80
25949;DHT22;13961;51.178;4.448;2023-08-20T07:42:57;33.90;91.40
25949;DHT22;13961;51.178;4.448;2023-08-20T07:45:23;33.30;92.10
25949;DHT22;13961;51.178;4.448;2023-08-20T07:47:50;32.80;92.70
25949;DHT22;13961;51.178;4.448;2023-08-20T07:50:15;31.60;93.60
25949;DHT22;13961;51.178;4.448;2023-08-20T07:52:42;32.10;94.20
25949;DHT22;13961;51.178;4.448;2023-08-20T07:55:08;32.00;93.20
25949;DHT22;13961;51.178;4.448;2023-08-20T07:57:33;30.70;95.00
25949;DHT22;13961;51.178;4.448;2023-08-20T07:59:59;30.70;95.40
25949;DHT22;13961;51.178;4.448;2023-08-20T08:02:27;31.70;94.50
25949;DHT22;13961;51.178;4.448;2023-08-20T08:04:52;33.10;92.70
25949;DHT22;13961;51.178;4.448;2023-08-20T08:07:18;34.60;91.30
25949;DHT22;13961;51.178;4.448;2023-08-20T08:09:50;34.90;90.00
25949;DHT22;13961;51.178;4.448;2023-08-20T08:12:16;34.10;89.40
25949;DHT22;13961;51.178;4.448;2023-08-20T08:14:42;34.50;87.70
25949;DHT22;13961;51.178;4.448;2023-08-20T08:17:08;34.20;87.90
25949;DHT22;13961;51.178;4.448;2023-08-20T08:19:33;34.40;88.60
25949;DHT22;13961;51.178;4.448;2023-08-20T08:22:00;34.60;85.90
25949;DHT22;13961;51.178;4.448;2023-08-20T08:24:27;34.10;85.50
25949;DHT22;13961;51.178;4.448;2023-08-20T08:26:52;34.20;86.70
25949;DHT22;13961;51.178;4.448;2023-08-20T08:29:18;33.60;87.10
25949;DHT22;13961;51.178;4.448;2023-08-20T08:31:44;33.80;85.20
25949;DHT22;13961;51.178;4.448;2023-08-20T08:34:11;33.70;86.80
25949;DHT22;13961;51.178;4.448;2023-08-20T08:36:39;34.40;85.10
25949;DHT22;13961;51.178;4.448;2023-08-20T08:39:05;34.60;86.50
25949;DHT22;13961;51.178;4.448;2023-08-20T08:41:32;32.30;90.40
25949;DHT22;13961;51.178;4.448;2023-08-20T08:44:01;32.40;87.20
25949;DHT22;13961;51.178;4.448;2023-08-20T08:46:28;31.70;88.90
25949;DHT22;13961;51.178;4.448;2023-08-20T08:48:56;31.60;90.00
25949;DHT22;13961;51.178;4.448;2023-08-20T08:51:23;32.20;89.10
25949;DHT22;13961;51.178;4.448;2023-08-20T08:53:49;33.20;87.70
25949;DHT22;13961;51.178;4.448;2023-08-20T08:56:15;33.40;84.80
25949;DHT22;13961;51.178;4.448;2023-08-20T08:58:42;33.10;86.60
25949;DHT22;13961;51.178;4.448;2023-08-20T09:01:08;32.80;88.70
25949;DHT22;13961;51.178;4.448;2023-08-20T09:03:34;33.20;89.20
25949;DHT22;13961;51.178;4.448;2023-08-20T09:06:01;32.90;90.00
25949;DHT22;13961;51.178;4.448;2023-08-20T09:08:30;33.30;87.00
25949;DHT22;13961;51.178;4.448;2023-08-20T09:10:57;33.70;86.30
25949;DHT22;13961;51.178;4.448;2023-08-20T09:13:42;33.40;86.40
25949;DHT22;13961;51.178;4.448;2023-08-20T09:16:11;33.00;85.50
25949;DHT22;13961;51.178;4.448;2023-08-20T09:18:41;32.70;86.80
25949;DHT22;13961;51.178;4.448;2023-08-20T09:21:10;32.80;86.00
25949;DHT22;13961;51.178;4.448;2023-08-20T09:23:37;31.90;86.30
25949;DHT22;13961;51.178;4.448;2023-08-20T09:26:06;30.60;90.40
25949;DHT22;13961;51.178;4.448;2023-08-20T09:28:44;29.50;91.70
25949;DHT22;13961;51.178;4.448;2023-08-20T09:31:11;29.20;92.50
25949;DHT22;13961;51.178;4.448;2023-08-20T09:33:37;28.70;92.70
25949;DHT22;13961;51.178;4.448;2023-08-20T09:36:07;28.40;93.80
25949;DHT22;13961;51.178;4.448;2023-08-20T09:38:36;27.90;93.90
25949;DHT22;13961;51.178;4.448;2023-08-20T09:41:05;27.90;97.00
25949;DHT22;13961;51.178;4.448;2023-08-20T09:43:37;27.90;97.10
25949;DHT22;13961;51.178;4.448;2023-08-20T09:46:04;28.00;95.60
25949;DHT22;13961;51.178;4.448;2023-08-20T09:48:35;27.70;96.20
25949;DHT22;13961;51.178;4.448;2023-08-20T09:51:10;27.70;97.70
25949;DHT22;13961;51.178;4.448;2023-08-20T09:56:31;27.80;97.90
25949;DHT22;13961;51.178;4.448;2023-08-20T09:59:02;27.60;97.70
25949;DHT22;13961;51.178;4.448;2023-08-20T10:01:29;27.60;98.70
25949;DHT22;13961;51.178;4.448;2023-08-20T10:03:55;27.40;98.30
25949;DHT22;13961;51.178;4.448;2023-08-20T10:06:23;27.40;99.50
25949;DHT22;13961;51.178;4.448;2023-08-20T10:08:50;27.70;98.70
25949;DHT22;13961;51.178;4.448;2023-08-20T10:11:16;27.40;98.80
25949;DHT22;13961;51.178;4.448;2023-08-20T10:13:42;27.40;99.90
25949;DHT22;13961;51.178;4.448;2023-08-20T10:16:12;27.50;98.20
25949;DHT22;13961;51.178;4.448;2023-08-20T10:18:39;27.60;98.70
25949;DHT22;13961;51.178;4.448;2023-08-20T10:21:08;27.40;98.80
25949;DHT22;13961;51.178;4.448;2023-08-20T10:23:34;27.40;98.80
25949;DHT22;13961;51.178;4.448;2023-08-20T10:26:08;27.80;99.80
25949;DHT22;13961;51.178;4.448;2023-08-20T10:28:34;27.90;99.10
25949;DHT22;13961;51.178;4.448;2023-08-20T10:31:09;28.00;98.30
25949;DHT22;13961;51.178;4.448;2023-08-20T10:36:18;27.70;98.50
25949;DHT22;13961;51.178;4.448;2023-08-20T10:38:48;27.70;97.90
25949;DHT22;13961;51.178;4.448;2023-08-20T10:41:13;27.90;99.40
25949;DHT22;13961;51.178;4.448;2023-08-20T10:43:49;28.20;98.30
25949;DHT22;13961;51.178;4.448;2023-08-20T10:46:20;28.30;97.90
25949;DHT22;13961;51.178;4.448;2023-08-20T10:48:55;28.20;97.80
25949;DHT22;13961;51.178;4.448;2023-08-20T10:51:27;28.30;96.50
25949;DHT22;13961;51.178;4.448;2023-08-20T10:54:05;28.10;97.60
25949;DHT22;13961;51.178;4.448;2023-08-20T10:59:15;27.90;97.20
25949;DHT22;13961;51.178;4.448;2023-08-20T11:01:46;27.70;97.40
25949;DHT22;13961;51.178;4.448;2023-08-20T11:04:14;27.70;96.90
25949;DHT22;13961;51.178;4.448;2023-08-20T11:06:41;27.90;97.30
25949;DHT22;13961;51.178;4.448;2023-08-20T11:09:07;28.10;97.40
25949;DHT22;13961;51.178;4.448;2023-08-20T11:11:33;28.30;97.70
25949;DHT22;13961;51.178;4.448;2023-08-20T11:14:06;28.30;96.30
25949;DHT22;13961;51.178;4.448;2023-08-20T11:16:35;28.40;96.50
25949;DHT22;13961;51.178;4.448;2023-08-20T11:19:04;28.40;97.00
25949;DHT22;13961;51.178;4.448;2023-08-20T11:21:38;28.50;96.80
25949;DHT22;13961;51.178;4.448;2023-08-20T11:24:05;28.60;98.30
25949;DHT22;13961;51.178;4.448;2023-08-20T11:26:33;28.80;98.00
25949;DHT22;13961;51.178;4.448;2023-08-20T11:29:10;28.60;97.60
25949;DHT22;13961;51.178;4.448;2023-08-20T11:31:36;28.60;96.20
25949;DHT22;13961;51.178;4.448;2023-08-20T11:34:03;28.60;96.70
25949;DHT22;13961;51.178;4.448;2023-08-20T11:36:29;28.80;96.80
25949;DHT22;13961;51.178;4.448;2023-08-20T11:38:57;28.50;96.30
25949;DHT22;13961;51.178;4.448;2023-08-20T11:41:25;28.20;96.60
25949;DHT22;13961;51.178;4.448;2023-08-20T11:43:53;28.30;96.70
25949;DHT22;13961;51.178;4.448;2023-08-20T11:46:20;28.20;96.70
25949;DHT22;13961;51.178;4.448;2023-08-20T11:49:06;28.40;97.50
25949;DHT22;13961;51.178;4.448;2023-08-20T11:51:39;28.70;96.80
25949;DHT22;13961;51.178;4.448;2023-08-20T11:54:10;28.40;97.90
25949;DHT22;13961;51.178;4.448;2023-08-20T11:56:43;28.40;96.90
25949;DHT22;13961;51.178;4.448;2023-08-20T11:59:11;28.30;97.40
25949;DHT22;13961;51.178;4.448;2023-08-20T12:01:37;28.10;98.60
25949;DHT22;13961;51.178;4.448;2023-08-20T12:04:09;28.10;98.70
25949;DHT22;13961;51.178;4.448;2023-08-20T12:06:36;28.10;98.50
25949;DHT22;13961;51.178;4.448;2023-08-20T12:09:21;28.20;97.60
25949;DHT22;13961;51.178;4.448;2023-08-20T12:11:51;28.20;98.00
25949;DHT22;13961;51.178;4.448;2023-08-20T12:14:18;27.90;98.40
25949;DHT22;13961;51.178;4.448;2023-08-20T12:16:44;28.00;99.10
25949;DHT22;13961;51.178;4.448;2023-08-20T12:19:09;28.20;98.70
25949;DHT22;13961;51.178;4.448;2023-08-20T12:21:36;28.30;98.80
25949;DHT22;13961;51.178;4.448;2023-08-20T12:24:02;28.60;99.40
25949;DHT22;13961;51.178;4.448;2023-08-20T12:26:30;28.50;98.90
25949;DHT22;13961;51.178;4.448;2023-08-20T12:28:55;28.40;98.80
25949;DHT22;13961;51.178;4.448;2023-08-20T12:31:22;28.50;98.20
25949;DHT22;13961;51.178;4.448;2023-08-20T12:33:48;28.70;98.90
25949;DHT22;13961;51.178;4.448;2023-08-20T12:36:13;29.10;99.30
25949;DHT22;13961;51.178;4.448;2023-08-20T12:38:39;29.10;97.70
25949;DHT22;13961;51.178;4.448;2023-08-20T12:41:06;29.20;97.20
25949;DHT22;13961;51.178;4.448;2023-08-20T12:43:32;29.20;98.00
25949;DHT22;13961;51.178;4.448;2023-08-20T12:45:58;29.10;96.80
25949;DHT22;13961;51.178;4.448;2023-08-20T12:48:24;29.40;97.00
25949;DHT22;13961;51.178;4.448;2023-08-20T12:50:49;29.50;96.60
25949;DHT22;13961;51.178;4.448;2023-08-20T12:53:15;29.60;96.30
25949;DHT22;13961;51.178;4.448;2023-08-20T12:55:41;29.40;97.10
25949;DHT22;13961;51.178;4.448;2023-08-20T12:58:06;29.60;97.40
25949;DHT22;13961;51.178;4.448;2023-08-20T13:00:33;29.90;97.10
25949;DHT22;13961;51.178;4.448;2023-08-20T13:02:59;29.90;96.40
25949;DHT22;13961;51.178;4.448;2023-08-20T13:05:25;29.90;96.60
25949;DHT22;13961;51.178;4.448;2023-08-20T13:07:52;29.80;95.90
25949;DHT22;13961;51.178;4.448;2023-08-20T13:10:18;29.80;96.30
25949;DHT22;13961;51.178;4.448;2023-08-20T13:13:02;29.10;95.70
25949;DHT22;13961;51.178;4.448;2023-08-20T13:15:29;28.80;96.10
25949;DHT22;13961;51.178;4.448;2023-08-20T13:17:55;28.90;96.70
25949;DHT22;13961;51.178;4.448;2023-08-20T13:20:21;29.00;96.30
25949;DHT22;13961;51.178;4.448;2023-08-20T13:22:49;29.40;96.10
25949;DHT22;13961;51.178;4.448;2023-08-20T13:25:15;29.30;96.10
25949;DHT22;13961;51.178;4.448;2023-08-20T13:27:41;29.30;95.50
25949;DHT22;13961;51.178;4.448;2023-08-20T13:30:08;29.10;96.90
25949;DHT22;13961;51.178;4.448;2023-08-20T13:32:34;28.90;97.10
25949;DHT22;13961;51.178;4.448;2023-08-20T13:35:00;29.20;97.80
25949;DHT22;13961;51.178;4.448;2023-08-20T13:37:27;29.30;96.40
25949;DHT22;13961;51.178;4.448;2023-08-20T13:39:52;29.50;97.20
25949;DHT22;13961;51.178;4.448;2023-08-20T13:42:18;29.50;96.40
25949;DHT22;13961;51.178;4.448;2023-08-20T13:44:44;29.40;95.80
25949;DHT22;13961;51.178;4.448;2023-08-20T13:47:09;29.80;96.90
25949;DHT22;13961;51.178;4.448;2023-08-20T13:49:35;29.80;96.90
25949;DHT22;13961;51.178;4.448;2023-08-20T13:52:00;29.90;96.10
25949;DHT22;13961;51.178;4.448;2023-08-20T13:54:26;30.40;96.20
25949;DHT22;13961;51.178;4.448;2023-08-20T13:56:52;30.50;96.20
25949;DHT22;13961;51.178;4.448;2023-08-20T13:59:17;30.30;95.20
25949;DHT22;13961;51.178;4.448;2023-08-20T14:01:43;30.10;96.70
25949;DHT22;13961;51.178;4.448;2023-08-20T14:04:09;29.60;96.70
25949;DHT22;13961;51.178;4.448;2023-08-20T14:06:34;29.40;97.70
25949;DHT22;13961;51.178;4.448;2023-08-20T14:09:01;29.30;97.60
25949;DHT22;13961;51.178;4.448;2023-08-20T14:11:31;29.50;97.70
25949;DHT22;13961;51.178;4.448;2023-08-20T14:13:57;29.10;97.30
25949;DHT22;13961;51.178;4.448;2023-08-20T14:16:23;29.30;97.20
25949;DHT22;13961;51.178;4.448;2023-08-20T14:18:49;29.80;96.40
25949;DHT22;13961;51.178;4.448;2023-08-20T14:21:15;30.10;95.90
25949;DHT22;13961;51.178;4.448;2023-08-20T14:23:40;30.30;96.20
25949;DHT22;13961;51.178;4.448;2023-08-20T14:26:06;30.10;96.60
25949;DHT22;13961;51.178;4.448;2023-08-20T14:28:33;30.00;95.00
25949;DHT22;13961;51.178;4.448;2023-08-20T14:31:03;30.30;95.30
25949;DHT22;13961;51.178;4.448;2023-08-20T14:33:30;30.20;95.30
25949;DHT22;13961;51.178;4.448;2023-08-20T14:35:57;30.30;95.50
25949;DHT22;13961;51.178;4.448;2023-08-20T14:38:23;30.30;97.80
25949;DHT22;13961;51.178;4.448;2023-08-20T14:40:48;30.40;95.20
25949;DHT22;13961;51.178;4.448;2023-08-20T14:43:14;30.40;96.10
25949;DHT22;13961;51.178;4.448;2023-08-20T14:45:41;30.10;96.00
25949;DHT22;13961;51.178;4.448;2023-08-20T14:48:07;30.30;96.60
25949;DHT22;13961;51.178;4.448;2023-08-20T14:50:34;30.40;97.30
25949;DHT22;13961;51.178;4.448;2023-08-20T14:53:01;30.40;96.90
25949;DHT22;13961;51.178;4.448;2023-08-20T14:55:29;30.30;98.50
25949;DHT22;13961;51.178;4.448;2023-08-20T14:57:55;30.20;95.70
25949;DHT22;13961;51.178;4.448;2023-08-20T15:00:20;29.80;97.00
25949;DHT22;13961;51.178;4.448;2023-08-20T15:02:48;29.70;97.20
25949;DHT22;13961;51.178;4.448;2023-08-20T15:05:13;29.50;97.10
25949;DHT22;13961;51.178;4.448;2023-08-20T15:07:39;29.60;97.30
25949;DHT22;13961;51.178;4.448;2023-08-20T15:10:06;29.80;98.30
25949;DHT22;13961;51.178;4.448;2023-08-20T15:12:38;29.90;98.70
25949;DHT22;13961;51.178;4.448;2023-08-20T15:15:04;30.10;96.10
25949;DHT22;13961;51.178;4.448;2023-08-20T15:17:30;30.10;96.30
25949;DHT22;13961;51.178;4.448;2023-08-20T15:20:00;30.00;96.60
25949;DHT22;13961;51.178;4.448;2023-08-20T15:22:26;29.70;97.50
25949;DHT22;13961;51.178;4.448;2023-08-20T15:24:51;29.40;98.20
25949;DHT22;13961;51.178;4.448;2023-08-20T15:27:18;29.30;98.30
25949;DHT22;13961;51.178;4.448;2023-08-20T15:29:44;29.30;98.80
25949;DHT22;13961;51.178;4.448;2023-08-20T15:32:10;29.40;99.20
25949;DHT22;13961;51.178;4.448;2023-08-20T15:34:36;29.40;98.60
25949;DHT22;13961;51.178;4.448;2023-08-20T15:37:02;29.30;98.80
25949;DHT22;13961;51.178;4.448;2023-08-20T15:39:28;29.20;99.00
25949;DHT22;13961;51.178;4.448;2023-08-20T15:41:53;29.20;99.90
25949;DHT22;13961;51.178;4.448;2023-08-20T15:44:19;29.30;99.00
25949;DHT22;13961;51.178;4.448;2023-08-20T15:46:45;29.40;99.30